createdAt,value
2022-10-19T00:01:18.455Z,3.98
2022-10-19T00:06:21.734Z,3.41
2022-10-19T00:08:48.825Z,3.61
2022-10-19T00:11:15.596Z,2.63
2022-10-19T00:13:42.737Z,2.64
2022-10-19T00:16:13.261Z,2.63
2022-10-19T00:18:41.610Z,4.00
2022-10-19T00:21:10.334Z,4.09
2022-10-19T00:23:37.433Z,3.83
2022-10-19T00:26:04.692Z,4.09
2022-10-19T00:28:31.671Z,3.83
2022-10-19T00:31:06.637Z,3.17
2022-10-19T00:33:34.412Z,2.30
2022-10-19T00:36:01.779Z,4.09
2022-10-19T00:38:28.553Z,3.97
2022-10-19T00:40:55.866Z,2.80
2022-10-19T00:43:25.888Z,3.32
2022-10-19T00:45:53.256Z,2.88
2022-10-19T00:48:26.452Z,2.47
2022-10-19T00:50:56.138Z,1.27
2022-10-19T00:53:26.192Z,2.77
2022-10-19T00:55:54.352Z,3.19
2022-10-19T00:58:21.216Z,3.45
2022-10-19T01:00:48.351Z,1.49
2022-10-19T01:03:15.414Z,2.04
2022-10-19T01:05:42.871Z,2.18
2022-10-19T01:08:10.529Z,2.90
2022-10-19T01:10:58.448Z,3.36
2022-10-19T01:13:44.828Z,3.45
2022-10-19T01:16:37.029Z,2.02
2022-10-19T01:19:34.201Z,3.25
2022-10-19T01:22:22.792Z,3.34
2022-10-19T01:24:57.470Z,3.26
2022-10-19T01:27:51.956Z,3.06
2022-10-19T01:30:54.609Z,1.63
2022-10-19T01:36:33.051Z,1.33
2022-10-19T01:39:44.287Z,2.67
2022-10-19T01:42:36.349Z,2.86
2022-10-19T01:45:14.177Z,2.91
2022-10-19T01:47:55.769Z,2.79
2022-10-19T01:50:36.134Z,2.98
2022-10-19T01:53:07.452Z,2.84
2022-10-19T01:55:38.113Z,2.17
2022-10-19T01:58:10.112Z,2.60
2022-10-19T02:00:42.684Z,2.62
2022-10-19T02:03:12.332Z,2.70
2022-10-19T02:05:41.587Z,1.44
2022-10-19T02:08:21.139Z,2.62
2022-10-19T02:10:48.379Z,1.01
2022-10-19T02:13:17.023Z,0.71
2022-10-19T02:15:50.359Z,2.55
2022-10-19T02:18:22.398Z,1.27
2022-10-19T02:20:49.310Z,0.50
2022-10-19T02:23:19.291Z,2.33
2022-10-19T02:25:46.533Z,0.80
2022-10-19T02:28:13.543Z,0.21
2022-10-19T02:30:40.799Z,1.40
2022-10-19T02:33:07.854Z,0.43
2022-10-19T02:35:35.175Z,1.98
2022-10-19T02:38:04.740Z,1.71
2022-10-19T02:40:36.817Z,1.59
2022-10-19T02:43:12.791Z,1.67
2022-10-19T02:45:48.793Z,-1.21
2022-10-19T02:48:21.751Z,1.42
2022-10-19T02:50:49.221Z,0.70
2022-10-19T02:53:16.730Z,1.21
2022-10-19T02:55:44.919Z,1.45
2022-10-19T02:58:11.729Z,1.26
2022-10-19T03:00:38.495Z,1.11
2022-10-19T03:03:05.368Z,0.97
2022-10-19T03:05:32.249Z,-0.03
2022-10-19T03:07:59.100Z,-0.26
2022-10-19T03:10:26.376Z,-0.07
2022-10-19T03:12:53.212Z,-0.12
2022-10-19T03:15:20.310Z,1.26
2022-10-19T03:17:47.579Z,1.43
2022-10-19T03:20:14.458Z,-0.02
2022-10-19T03:22:41.258Z,0.98
2022-10-19T03:25:08.901Z,1.20
2022-10-19T03:27:36.225Z,0.07
2022-10-19T03:30:03.861Z,0.88
2022-10-19T03:32:31.169Z,-0.42
2022-10-19T03:34:57.877Z,1.16
2022-10-19T03:37:24.753Z,-0.38
2022-10-19T03:39:51.859Z,0.30
2022-10-19T03:42:18.678Z,-0.49
2022-10-19T03:44:45.551Z,0.65
2022-10-19T03:47:14.471Z,0.43
2022-10-19T03:49:41.302Z,-1.51
2022-10-19T03:52:10.329Z,0.48
2022-10-19T03:54:38.615Z,-0.80
2022-10-19T03:57:05.497Z,0.61
2022-10-19T03:59:37.813Z,-4.21
2022-10-19T04:02:10.103Z,-2.75
2022-10-19T04:04:51.931Z,-0.73
2022-10-19T04:07:33.506Z,1.18
2022-10-19T04:15:44.291Z,-0.26
2022-10-19T04:18:11.143Z,1.48
2022-10-19T04:20:41.418Z,-0.04
2022-10-19T04:23:08.503Z,1.37
2022-10-19T04:25:35.458Z,-1.75
2022-10-19T04:28:02.408Z,1.38
2022-10-19T04:30:29.638Z,-0.43
2022-10-19T04:32:56.496Z,1.37
2022-10-19T04:35:23.290Z,0.47
2022-10-19T04:37:50.539Z,0.07
2022-10-19T04:40:17.450Z,-1.96
2022-10-19T04:42:44.348Z,0.98
2022-10-19T04:45:12.068Z,-2.41
2022-10-19T04:47:39.008Z,0.15
2022-10-19T04:50:06.250Z,-1.28
2022-10-19T04:52:33.621Z,-1.80
2022-10-19T04:55:00.421Z,-1.43
2022-10-19T04:57:27.312Z,0.54
2022-10-19T04:59:54.463Z,0.16
2022-10-19T05:02:21.237Z,0.62
2022-10-19T05:04:48.494Z,0.41
2022-10-19T05:07:15.700Z,0.54
2022-10-19T05:09:42.735Z,0.09
2022-10-19T05:12:09.533Z,-0.48
2022-10-19T05:14:39.031Z,-0.08
2022-10-19T05:17:08.686Z,1.33
2022-10-19T05:19:35.476Z,0.31
2022-10-19T05:22:02.550Z,1.91
2022-10-19T05:24:29.304Z,1.30
2022-10-19T05:26:56.171Z,2.16
2022-10-19T05:29:23.359Z,0.91
2022-10-19T05:31:50.335Z,1.45
2022-10-19T05:34:17.170Z,1.04
2022-10-19T05:36:44.291Z,0.50
2022-10-19T05:39:16.621Z,1.01
2022-10-19T05:41:47.452Z,1.28
2022-10-19T05:44:18.145Z,1.09
2022-10-19T05:46:45.953Z,-0.64
2022-10-19T05:49:14.912Z,3.26
2022-10-19T05:51:46.413Z,1.02
2022-10-19T05:54:14.347Z,0.53
2022-10-19T05:56:42.677Z,3.87
2022-10-19T05:59:13.252Z,1.03
2022-10-19T06:01:46.992Z,3.96
2022-10-19T06:04:22.374Z,-1.25
2022-10-19T06:06:52.892Z,0.08
2022-10-19T06:09:19.918Z,2.18
2022-10-19T06:11:48.408Z,1.83
2022-10-19T06:14:16.707Z,3.55
2022-10-19T06:16:43.828Z,1.79
2022-10-19T06:19:11.065Z,4.77
2022-10-19T06:21:43.390Z,5.20
2022-10-19T06:24:15.211Z,3.71
2022-10-19T06:29:38.852Z,2.16
2022-10-19T06:32:05.940Z,3.99
2022-10-19T06:34:32.864Z,5.11
2022-10-19T06:37:00.255Z,6.02
2022-10-19T06:39:27.292Z,3.79
2022-10-19T06:41:54.054Z,3.32
2022-10-19T06:44:21.106Z,4.79
2022-10-19T06:46:48.248Z,4.96
2022-10-19T06:49:15.180Z,5.08
2022-10-19T06:51:42.169Z,5.97
2022-10-19T06:54:08.976Z,5.34
2022-10-19T06:56:36.240Z,6.24
2022-10-19T06:59:03.347Z,7.34
2022-10-19T07:01:30.466Z,6.96
2022-10-19T07:03:57.334Z,7.16
2022-10-19T07:06:24.354Z,8.31
2022-10-19T07:08:52.936Z,7.62
2022-10-19T07:11:21.779Z,8.39
2022-10-19T07:13:48.955Z,7.83
2022-10-19T07:16:20.939Z,8.77
2022-10-19T07:18:50.464Z,7.68
2022-10-19T07:21:18.058Z,7.31
2022-10-19T07:23:46.543Z,8.85
2022-10-19T07:26:21.834Z,9.59
2022-10-19T07:28:49.516Z,9.93
2022-10-19T07:31:19.494Z,9.98
2022-10-19T07:33:47.977Z,8.07
2022-10-19T07:36:15.099Z,8.73
2022-10-19T07:38:41.862Z,9.44
2022-10-19T07:41:14.370Z,9.18
2022-10-19T07:43:43.196Z,9.27
2022-10-19T07:46:16.196Z,9.78
2022-10-19T07:48:44.253Z,8.90
2022-10-19T07:51:13.147Z,9.83
2022-10-19T07:53:40.215Z,11.12
2022-10-19T07:56:13.397Z,11.41
2022-10-19T07:58:41.573Z,11.99
2022-10-19T08:01:11.696Z,11.38
2022-10-19T08:06:26.235Z,13.26
2022-10-19T08:08:54.868Z,12.29
2022-10-19T08:11:25.854Z,13.60
2022-10-19T08:13:53.261Z,12.93
2022-10-19T08:16:35.055Z,14.15
2022-10-19T08:19:04.863Z,14.42
2022-10-19T08:21:31.776Z,13.36
2022-10-19T08:23:59.322Z,13.82
2022-10-19T08:26:30.060Z,13.72
2022-10-19T08:29:05.214Z,14.05
2022-10-19T08:31:32.812Z,15.36
2022-10-19T08:33:59.655Z,13.95
2022-10-19T08:36:26.757Z,14.66
2022-10-19T08:38:53.732Z,13.95
2022-10-19T08:41:46.412Z,14.47
2022-10-19T08:44:34.878Z,15.52
2022-10-19T08:47:39.158Z,15.83
2022-10-19T08:50:24.052Z,14.65
2022-10-19T08:53:16.617Z,14.37
2022-10-19T08:55:59.789Z,15.05
2022-10-19T08:58:51.733Z,15.83
2022-10-19T09:01:46.612Z,15.37
2022-10-19T09:04:33.974Z,14.11
2022-10-19T09:07:36.355Z,17.00
2022-10-19T09:10:16.062Z,17.66
2022-10-19T09:13:05.667Z,18.30
2022-10-19T09:15:41.779Z,18.17
2022-10-19T09:18:18.816Z,16.49
2022-10-19T09:20:49.341Z,18.23
2022-10-19T09:23:39.249Z,18.66
2022-10-19T09:26:20.780Z,18.40
2022-10-19T09:28:55.952Z,18.95
2022-10-19T09:31:33.430Z,17.80
2022-10-19T09:34:36.575Z,18.07
2022-10-19T09:39:57.260Z,18.25
2022-10-19T09:42:34.035Z,19.43
2022-10-19T09:45:11.735Z,18.64
2022-10-19T09:47:41.215Z,16.90
2022-10-19T09:50:08.254Z,20.18
2022-10-19T09:52:38.577Z,19.72
2022-10-19T09:55:24.026Z,16.21
2022-10-19T09:57:59.280Z,18.56
2022-10-19T10:00:42.860Z,20.02
2022-10-19T10:03:32.276Z,20.08
2022-10-19T10:06:05.016Z,19.90
2022-10-19T10:08:35.788Z,19.89
2022-10-19T10:11:30.337Z,18.41
2022-10-19T10:14:10.072Z,20.49
2022-10-19T10:16:37.375Z,16.93
2022-10-19T10:19:11.339Z,16.88
2022-10-19T10:21:50.776Z,20.88
2022-10-19T10:24:22.101Z,20.80
2022-10-19T10:26:56.945Z,17.57
2022-10-19T10:29:26.891Z,19.93
2022-10-19T10:32:03.772Z,21.04
2022-10-19T10:35:00.964Z,20.98
2022-10-19T10:37:40.028Z,20.22
2022-10-19T10:40:28.611Z,19.62
2022-10-19T10:43:01.787Z,21.01
2022-10-19T10:45:36.998Z,20.27
2022-10-19T10:48:31.480Z,20.76
2022-10-19T10:51:01.016Z,20.69
2022-10-19T10:53:38.259Z,20.91
2022-10-19T10:56:18.111Z,20.36
2022-10-19T10:59:04.335Z,20.66
2022-10-19T11:01:40.929Z,22.24
2022-10-19T11:04:21.859Z,21.16
2022-10-19T11:06:55.933Z,21.82
2022-10-19T11:09:38.797Z,21.86
2022-10-19T11:12:12.512Z,21.71
2022-10-19T11:14:56.290Z,21.93
2022-10-19T11:17:28.332Z,20.19
2022-10-19T11:19:55.573Z,21.19
2022-10-19T11:22:30.283Z,22.80
2022-10-19T11:25:29.577Z,22.20
2022-10-19T11:28:19.947Z,20.75
2022-10-19T11:31:13.350Z,21.42
2022-10-19T11:33:52.228Z,22.68
2022-10-19T11:36:51.222Z,21.67
2022-10-19T11:39:18.455Z,23.22
2022-10-19T11:41:56.496Z,23.52
2022-10-19T11:44:48.751Z,23.49
2022-10-19T11:47:33.137Z,23.30
2022-10-19T11:50:12.467Z,23.06
2022-10-19T11:52:57.899Z,22.97
2022-10-19T11:55:38.221Z,23.24
2022-10-19T11:58:46.820Z,23.62
2022-10-19T12:01:36.711Z,23.17
2022-10-19T12:04:21.941Z,23.78
2022-10-19T12:07:08.357Z,24.02
2022-10-19T12:09:38.137Z,24.02
2022-10-19T12:12:24.314Z,23.62
2022-10-19T12:14:57.432Z,22.15
2022-10-19T12:17:30.968Z,21.30
2022-10-19T12:20:05.954Z,22.97
2022-10-19T12:22:36.011Z,23.58
2022-10-19T12:25:03.218Z,22.50
2022-10-19T12:27:37.768Z,23.40
2022-10-19T12:30:08.733Z,23.40
2022-10-19T12:33:03.064Z,23.71
2022-10-19T12:35:39.735Z,23.33
2022-10-19T12:38:14.649Z,23.75
2022-10-19T12:41:01.399Z,22.79
2022-10-19T12:44:01.696Z,22.51
2022-10-19T12:47:00.829Z,23.65
2022-10-19T12:49:31.453Z,23.84
2022-10-19T12:52:01.114Z,23.52
2022-10-19T12:54:33.386Z,21.82
2022-10-19T12:57:04.180Z,21.97
2022-10-19T12:59:36.941Z,19.34
2022-10-19T13:02:27.295Z,19.47
2022-10-19T13:04:54.771Z,19.79
2022-10-19T13:07:33.401Z,22.05
2022-10-19T13:10:05.049Z,19.24
2022-10-19T13:12:52.514Z,19.07
2022-10-19T13:15:37.744Z,23.08
2022-10-19T13:18:12.458Z,23.24
2022-10-19T13:23:07.369Z,22.82
2022-10-19T13:25:35.661Z,23.00
2022-10-19T13:28:08.388Z,22.99
2022-10-19T13:30:38.172Z,23.00
2022-10-19T13:33:23.315Z,22.57
2022-10-19T13:35:59.227Z,22.08
2022-10-19T13:38:32.815Z,22.31
2022-10-19T13:41:10.540Z,22.40
2022-10-19T13:43:49.332Z,22.47
2022-10-19T13:46:20.587Z,22.33
2022-10-19T13:49:27.805Z,21.52
2022-10-19T13:52:39.152Z,22.40
2022-10-19T13:55:33.610Z,22.28
2022-10-19T13:58:31.106Z,22.47
2022-10-19T14:01:27.414Z,22.17
2022-10-19T14:04:33.837Z,22.29
2022-10-19T14:07:15.171Z,21.56
2022-10-19T14:09:58.368Z,21.99
2022-10-19T14:12:30.295Z,22.03
2022-10-19T14:14:57.311Z,22.02
2022-10-19T14:17:26.919Z,22.08
2022-10-19T14:19:56.890Z,21.91
2022-10-19T14:22:36.379Z,21.82
2022-10-19T14:25:21.179Z,21.76
2022-10-19T14:27:54.180Z,21.69
2022-10-19T14:30:29.946Z,20.26
2022-10-19T14:32:59.553Z,20.52
2022-10-19T14:35:35.783Z,21.54
2022-10-19T14:38:06.275Z,21.20
2022-10-19T14:40:41.232Z,21.54
2022-10-19T14:43:34.705Z,20.85
2022-10-19T14:46:07.608Z,20.87
2022-10-19T14:48:40.252Z,20.91
2022-10-19T14:51:17.495Z,20.84
2022-10-19T14:54:01.458Z,20.23
2022-10-19T14:56:39.057Z,18.50
2022-10-19T14:59:25.669Z,19.78
2022-10-19T15:02:00.130Z,18.60
2022-10-19T15:04:37.133Z,17.49
2022-10-19T15:07:14.106Z,19.21
2022-10-19T15:09:49.382Z,17.82
2022-10-19T15:12:20.398Z,17.70
2022-10-19T15:14:48.733Z,18.64
2022-10-19T15:17:26.691Z,18.58
2022-10-19T15:19:54.551Z,18.24
2022-10-19T15:22:22.616Z,18.17
2022-10-19T15:25:07.434Z,18.20
2022-10-19T15:27:37.572Z,18.03
2022-10-19T15:30:24.332Z,17.74
2022-10-19T15:33:02.366Z,17.57
2022-10-19T15:35:35.615Z,17.44
2022-10-19T15:38:08.255Z,16.03
2022-10-19T15:40:38.132Z,16.75
2022-10-19T15:43:32.501Z,16.89
2022-10-19T15:46:21.232Z,16.03
2022-10-19T15:48:52.498Z,15.90
2022-10-19T15:51:21.975Z,16.58
2022-10-19T15:53:50.733Z,15.65
2022-10-19T15:56:17.745Z,16.75
2022-10-19T15:58:44.650Z,16.53
2022-10-19T16:01:17.812Z,16.20
2022-10-19T16:03:45.855Z,16.11
2022-10-19T16:06:13.071Z,16.20
2022-10-19T16:08:39.998Z,15.08
2022-10-19T16:11:12.757Z,15.27
2022-10-19T16:13:39.543Z,13.83
2022-10-19T16:16:11.534Z,15.47
2022-10-19T16:18:38.779Z,15.45
2022-10-19T16:21:05.809Z,14.22
2022-10-19T16:23:33.731Z,15.33
2022-10-19T16:26:02.303Z,13.65
2022-10-19T16:28:29.020Z,13.88
2022-10-19T16:30:55.956Z,15.35
2022-10-19T16:33:23.452Z,14.01
2022-10-19T16:35:50.215Z,13.72
2022-10-19T16:38:17.502Z,13.99
2022-10-19T16:40:44.257Z,14.86
2022-10-19T16:43:11.213Z,14.23
2022-10-19T16:45:42.660Z,14.35
2022-10-19T16:48:12.612Z,14.49
2022-10-19T16:50:39.837Z,13.78
2022-10-19T16:53:11.344Z,15.33
2022-10-19T16:55:38.655Z,14.40
2022-10-19T16:58:06.130Z,13.40
2022-10-19T17:00:33.665Z,14.15
2022-10-19T17:03:00.488Z,14.84
2022-10-19T17:05:27.355Z,14.77
2022-10-19T17:07:54.273Z,13.81
2022-10-19T17:10:21.138Z,13.21
2022-10-19T17:12:48.011Z,13.35
2022-10-19T17:15:41.506Z,14.18
2022-10-19T17:18:02.449Z,13.11
2022-10-19T17:20:29.492Z,12.64
2022-10-19T17:22:56.176Z,13.66
2022-10-19T17:25:22.940Z,13.17
2022-10-19T17:27:53.067Z,12.43
2022-10-19T17:30:20.014Z,13.76
2022-10-19T17:32:50.017Z,12.48
2022-10-19T17:35:17.142Z,13.41
2022-10-19T17:37:43.950Z,13.32
2022-10-19T17:40:11.278Z,12.48
2022-10-19T17:42:39.070Z,11.48
2022-10-19T17:45:06.448Z,13.27
2022-10-19T17:47:34.315Z,13.25
2022-10-19T17:50:01.532Z,11.84
2022-10-19T17:52:28.294Z,11.94
2022-10-19T17:57:42.259Z,13.15
2022-10-19T18:00:09.734Z,12.42
2022-10-19T18:02:36.515Z,13.09
2022-10-19T18:05:03.546Z,13.26
2022-10-19T18:07:30.733Z,13.19
2022-10-19T18:09:57.571Z,12.18
2022-10-19T18:12:24.415Z,13.21
2022-10-19T18:14:51.315Z,13.21
2022-10-19T18:17:18.371Z,13.27
2022-10-19T18:19:45.461Z,11.68
2022-10-19T18:22:12.491Z,13.45
2022-10-19T18:24:39.374Z,11.92
2022-10-19T18:27:06.354Z,11.89
2022-10-19T18:29:33.499Z,11.17
2022-10-19T18:32:00.379Z,11.95
2022-10-19T18:34:27.372Z,13.08
2022-10-19T18:36:54.741Z,13.07
2022-10-19T18:39:22.900Z,12.54
2022-10-19T18:41:51.986Z,12.00
2022-10-19T18:44:23.626Z,11.88
2022-10-19T18:46:53.510Z,12.87
2022-10-19T18:49:20.498Z,12.79
2022-10-19T18:51:52.317Z,12.80
2022-10-19T18:54:22.419Z,12.86
2022-10-19T18:56:49.414Z,12.72
2022-10-19T18:59:16.361Z,11.11
2022-10-19T19:01:51.221Z,11.56
2022-10-19T19:04:18.215Z,11.96
2022-10-19T19:06:45.898Z,10.71
2022-10-19T19:09:13.289Z,11.89
2022-10-19T19:11:41.256Z,10.42
2022-10-19T19:14:15.432Z,11.70
2022-10-19T19:16:43.656Z,12.09
2022-10-19T19:19:12.857Z,11.02
2022-10-19T19:21:40.689Z,11.36
2022-10-19T19:24:07.932Z,12.39
2022-10-19T19:26:39.571Z,12.64
2022-10-19T19:29:06.653Z,10.58
2022-10-19T19:31:33.987Z,12.68
2022-10-19T19:34:01.733Z,12.71
2022-10-19T19:36:29.366Z,11.43
2022-10-19T19:38:56.970Z,10.09
2022-10-19T19:44:14.020Z,12.59
2022-10-19T19:46:41.972Z,11.54
2022-10-19T19:49:09.035Z,11.89
2022-10-19T19:51:35.892Z,12.78
2022-10-19T19:54:03.214Z,12.35
2022-10-19T19:56:30.169Z,12.91
2022-10-19T19:58:59.070Z,12.02
2022-10-19T20:01:34.424Z,12.99
2022-10-19T20:06:28.748Z,11.94
2022-10-19T20:08:56.490Z,12.28
2022-10-19T20:11:25.208Z,13.17
2022-10-19T20:13:58.373Z,11.67
2022-10-19T20:16:29.816Z,12.04
2022-10-19T20:19:10.738Z,11.19
2022-10-19T20:21:38.338Z,11.82
2022-10-19T20:24:05.593Z,12.25
2022-10-19T20:26:32.793Z,12.51
2022-10-19T20:29:02.574Z,12.42
2022-10-19T20:31:30.505Z,11.31
2022-10-19T20:33:57.370Z,11.26
2022-10-19T20:36:26.413Z,11.14
2022-10-19T20:38:55.771Z,11.78
2022-10-19T20:41:25.456Z,10.95
2022-10-19T20:43:53.868Z,12.27
2022-10-19T20:46:23.452Z,10.82
2022-10-19T20:48:51.945Z,10.85
2022-10-19T20:51:27.619Z,12.08
2022-10-19T20:53:59.425Z,12.16
2022-10-19T20:56:32.086Z,12.20
2022-10-19T20:59:06.144Z,11.57
2022-10-19T21:01:35.197Z,10.95
2022-10-19T21:04:04.348Z,10.61
2022-10-19T21:06:34.425Z,12.06
2022-10-19T21:09:02.003Z,12.15
2022-10-19T21:11:32.128Z,12.07
2022-10-19T21:14:04.617Z,10.86
2022-10-19T21:16:32.091Z,11.40
2022-10-19T21:19:03.222Z,12.25
2022-10-19T21:21:35.452Z,12.29
2022-10-19T21:24:10.734Z,12.20
2022-10-19T21:26:38.682Z,11.37
2022-10-19T21:29:08.436Z,12.46
2022-10-19T21:31:36.810Z,12.50
2022-10-19T21:34:08.498Z,12.54
2022-10-19T21:36:35.583Z,11.32
2022-10-19T21:39:02.790Z,10.62
2022-10-19T21:41:30.134Z,12.73
2022-10-19T21:43:57.056Z,12.76
2022-10-19T21:46:23.911Z,12.74
2022-10-19T21:48:51.855Z,12.72
2022-10-19T21:51:21.150Z,12.69
2022-10-19T21:53:49.535Z,11.38
2022-10-19T21:56:17.133Z,11.30
2022-10-19T21:58:48.899Z,12.65
2022-10-19T22:01:19.759Z,11.70
2022-10-19T22:03:47.025Z,11.70
2022-10-19T22:06:15.653Z,11.51
2022-10-19T22:08:46.893Z,11.62
2022-10-19T22:11:15.230Z,12.82
2022-10-19T22:13:42.299Z,12.78
2022-10-19T22:16:15.489Z,12.81
2022-10-19T22:18:42.557Z,12.73
2022-10-19T22:21:15.931Z,11.73
2022-10-19T22:23:43.449Z,11.63
2022-10-19T22:26:20.521Z,11.82
2022-10-19T22:28:49.380Z,12.77
2022-10-19T22:31:16.153Z,12.98
2022-10-19T22:33:43.021Z,11.78
2022-10-19T22:36:11.619Z,11.95
2022-10-19T22:38:38.496Z,11.56
2022-10-19T22:41:05.472Z,12.61
2022-10-19T22:43:32.435Z,12.66
2022-10-19T22:45:59.330Z,12.37
2022-10-19T22:48:26.523Z,12.00
2022-10-19T22:50:54.094Z,11.64
2022-10-19T22:53:22.611Z,11.85
2022-10-19T22:55:50.495Z,12.93
2022-10-19T22:58:18.010Z,12.99
2022-10-19T23:00:44.892Z,13.02
2022-10-19T23:03:11.876Z,12.02
2022-10-19T23:05:38.608Z,12.51
2022-10-19T23:08:05.612Z,11.98
2022-10-19T23:10:32.744Z,12.95
2022-10-19T23:12:59.622Z,12.60
2022-10-19T23:15:26.677Z,11.74
2022-10-19T23:17:53.810Z,12.31
2022-10-19T23:20:20.572Z,12.42
2022-10-19T23:22:47.641Z,12.34
2022-10-19T23:25:14.472Z,11.47
2022-10-19T23:27:41.251Z,11.24
2022-10-19T23:30:08.417Z,12.25
2022-10-19T23:32:35.379Z,10.66
2022-10-19T23:35:02.213Z,11.96
2022-10-19T23:37:29.309Z,12.32
2022-10-19T23:39:56.243Z,10.81
2022-10-19T23:42:22.957Z,11.53
2022-10-19T23:44:49.914Z,11.25
2022-10-19T23:47:17.031Z,10.63
2022-10-19T23:49:43.896Z,10.90
2022-10-19T23:52:10.732Z,10.43
2022-10-19T23:54:37.665Z,12.13
2022-10-19T23:57:04.667Z,10.92
2022-10-19T23:59:32.295Z,12.02
